Time;durP1;ratioP1;P1;durP2;ratioP2;P2;SDS_P1;SDS_P2;PMS_P1;PMS_P2;Temp;Humidity;BMP_temperature;BMP_pressure;BME280_temperature;BME280_humidity;BME280_pressure;Samples;Min_cycle;Max_cycle;Signal;HPM_P1;HPM_P2
2022/04/08 00:01:16;;;;;;;4.50;1.27;;;;;;;;;;5066659;28;20091;-77
2022/04/08 00:03:42;;;;;;;7.32;0.85;;;;;;;;;;5044813;28;20083;-77
2022/04/08 00:06:08;;;;;;;8.20;1.10;;;;;;;;;;5050125;28;20048;-76
2022/04/08 00:08:37;;;;;;;8.07;1.10;;;6.00;99.90;;;;;;5040601;28;20124;-77
2022/04/08 00:11:02;;;;;;;6.22;0.75;;;;;;;;;;5048109;28;20037;-77
2022/04/08 00:13:28;;;;;;;2.45;0.70;;;;;;;;;;5051398;28;20075;-77
2022/04/08 00:15:54;;;;;;;2.53;0.70;;;;;;;;;;5049116;28;20043;-77
2022/04/08 00:18:20;;;;;;;3.97;1.30;;;;;;;;;;5059326;28;20501;-77
2022/04/08 00:20:46;;;;;;;4.88;0.90;;;;;;;;;;5048446;28;20037;-77
2022/04/08 00:23:12;;;;;;;4.90;0.88;;;;;;;;;;5049852;28;20363;-76
2022/04/08 00:25:38;;;;;;;7.15;1.55;;;;;;;;;;5049988;28;20052;-76
2022/04/08 00:28:04;;;;;;;8.93;1.50;;;;;;;;;;5048348;28;20491;-76
2022/04/08 00:30:30;;;;;;;4.13;0.80;;;;;;;;;;5048235;28;20441;-76
2022/04/08 00:32:58;;;;;;;6.50;1.35;;;;;;;;;;5049531;28;20055;-76
2022/04/08 00:35:24;;;;;;;6.28;1.48;;;;;;;;;;5049341;28;20043;-77
2022/04/08 00:37:50;;;;;;;5.55;1.15;;;;;;;;;;5033136;28;20572;-76
2022/04/08 00:40:16;;;;;;;10.73;2.10;;;;;;;;;;5048091;28;20033;-76
2022/04/08 00:42:43;;;;;;;7.28;1.63;;;;;;;;;;5049108;28;20029;-76
2022/04/08 00:45:09;;;;;;;18.05;3.22;;;;;;;;;;5050986;28;20040;-76
2022/04/08 00:47:37;;;;;;;10.65;2.03;;;;;;;;;;5049665;28;20040;-77
2022/04/08 00:50:07;;;;;;;8.32;1.65;;;;;;;;;;5048729;28;20049;-77
2022/04/08 00:52:35;;;;;;;5.65;1.55;;;5.40;99.90;;;;;;5039457;28;20076;-77
2022/04/08 00:55:05;;;;;;;7.10;1.65;;;;;;;;;;5060426;28;20037;-77
2022/04/08 00:57:32;;;;;;;7.78;1.80;;;5.10;99.90;;;;;;5048877;28;20041;-77
2022/04/08 00:59:58;;;;;;;7.03;1.67;;;;;;;;;;5049336;28;20090;-77
2022/04/08 01:02:25;;;;;;;8.68;1.40;;;;;;;;;;5034230;28;20041;-76
2022/04/08 01:04:51;;;;;;;9.60;2.25;;;;;;;;;;5048477;28;20037;-76
2022/04/08 01:07:17;;;;;;;8.88;1.25;;;;;;;;;;5049436;28;20036;-76
2022/04/08 01:09:43;;;;;;;9.25;2.17;;;;;;;;;;5030498;28;20040;-76
2022/04/08 01:12:09;;;;;;;6.43;1.40;;;;;;;;;;5048557;28;20037;-76
2022/04/08 01:14:38;;;;;;;7.53;1.50;;;;;;;;;;5032292;28;20128;-76
2022/04/08 01:17:04;;;;;;;10.77;2.45;;;;;;;;;;5037169;28;20498;-76
2022/04/08 01:19:30;;;;;;;5.93;1.40;;;;;;;;;;5048169;28;20394;-76
2022/04/08 01:21:56;;;;;;;7.68;1.40;;;;;;;;;;5048201;28;20037;-76
2022/04/08 01:24:24;;;;;;;13.55;1.73;;;;;;;;;;5047474;28;20040;-76
2022/04/08 01:26:52;;;;;;;9.25;1.65;;;;;;;;;;5048788;28;20048;-76
2022/04/08 01:29:18;;;;;;;13.73;1.90;;;;;;;;;;5035267;28;20405;-76
2022/04/08 01:31:45;;;;;;;10.48;1.65;;;;;;;;;;5048311;28;20040;-76
2022/04/08 01:34:11;;;;;;;12.85;1.40;;;;;;;;;;5050062;28;20119;-76
2022/04/08 01:36:37;;;;;;;12.80;2.78;;;;;;;;;;5047531;28;20071;-77
2022/04/08 01:39:10;;;;;;;12.82;2.15;;;;;;;;;;5047820;28;20495;-78
2022/04/08 01:41:36;;;;;;;5.75;1.80;;;;;;;;;;5048591;28;20491;-75
2022/04/08 01:44:01;;;;;;;12.07;1.80;;;;;;;;;;5048506;28;20094;-76
2022/04/08 01:46:27;;;;;;;11.23;1.80;;;;;;;;;;5049484;28;20036;-76
2022/04/08 01:48:54;;;;;;;18.10;3.90;;;;;;;;;;5046893;28;20080;-74
2022/04/08 01:51:21;;;;;;;13.20;1.98;;;5.10;99.90;;;;;;5049272;28;20045;-76
2022/04/08 01:53:47;;;;;;;11.73;2.45;;;;;;;;;;5031164;28;20082;-76
2022/04/08 01:56:14;;;;;;;14.68;2.47;;;;;;;;;;5048608;28;20041;-76
2022/04/08 01:58:40;;;;;;;12.15;2.22;;;;;;;;;;5049988;28;20044;-77
2022/04/08 02:01:06;;;;;;;11.88;1.55;;;;;;;;;;5048959;28;20418;-76
2022/04/08 02:03:33;;;;;;;8.50;2.13;;;;;;;;;;5052046;28;20215;-76
2022/04/08 02:05:59;;;;;;;10.38;2.42;;;;;;;;;;5051038;28;20509;-76
2022/04/08 02:08:25;;;;;;;10.60;1.80;;;;;;;;;;5048619;28;20072;-76
2022/04/08 02:10:53;;;;;;;10.43;2.22;;;;;;;;;;5049523;28;20099;-77
2022/04/08 02:13:19;;;;;;;10.82;1.90;;;;;;;;;;5057714;28;20045;-76
2022/04/08 02:15:46;;;;;;;10.88;2.13;;;;;;;;;;5040137;28;20103;-76
2022/04/08 02:18:12;;;;;;;10.30;1.13;;;;;;;;;;5047467;28;20140;-77
2022/04/08 02:20:38;;;;;;;8.70;1.98;;;;;;;;;;5030636;28;20064;-76
2022/04/08 02:23:05;;;;;;;7.40;1.50;;;4.90;99.90;;;;;;5048639;28;20044;-75
2022/04/08 02:25:31;;;;;;;9.73;1.27;;;4.80;99.90;;;;;;5049263;28;20124;-75
2022/04/08 02:27:57;;;;;;;11.48;2.60;;;;;;;;;;5049571;28;20033;-76
2022/04/08 02:30:23;;;;;;;7.53;1.38;;;;;;;;;;5045933;28;20048;-76
2022/04/08 02:32:49;;;;;;;9.80;1.67;;;;;;;;;;5047273;28;20127;-76
2022/04/08 02:35:15;;;;;;;8.35;1.35;;;;;;;;;;5048250;28;20120;-76
2022/04/08 02:37:41;;;;;;;20.52;3.60;;;;;;;;;;5046374;28;20073;-75
2022/04/08 02:40:13;;;;;;;11.90;2.50;;;;;;;;;;5048633;28;20503;-77
2022/04/08 02:42:39;;;;;;;13.30;2.47;;;;;;;;;;5049569;28;20037;-76
2022/04/08 02:45:06;;;;;;;9.77;1.75;;;;;;;;;;5049063;28;20041;-78
2022/04/08 02:47:32;;;;;;;11.88;2.28;;;;;;;;;;5052091;28;20041;-76
2022/04/08 02:49:57;;;;;;;9.55;1.90;;;5.40;99.90;;;;;;5049187;28;20135;-76
2022/04/08 02:52:23;;;;;;;14.27;2.28;;;;;;;;;;5052343;28;20420;-78
2022/04/08 02:54:49;;;;;;;14.98;2.97;;;;;;;;;;5054593;28;20094;-76
2022/04/08 02:57:15;;;;;;;14.65;2.00;;;;;;;;;;5052691;28;20060;-77
2022/04/08 02:59:41;;;;;;;21.40;2.80;;;;;;;;;;5052551;28;20036;-77
2022/04/08 03:02:19;;;;;;;9.20;2.25;;;;;;;;;;5044183;28;20033;-76
2022/04/08 03:04:45;;;;;;;15.00;2.38;;;;;;;;;;5048872;28;20430;-77
2022/04/08 03:07:14;;;;;;;18.30;2.30;;;;;;;;;;5051258;28;20095;-78
2022/04/08 03:09:40;;;;;;;17.05;3.13;;;;;;;;;;5048745;28;20124;-75
2022/04/08 03:12:05;;;;;;;18.65;2.58;;;5.40;99.90;;;;;;5051152;28;20212;-76
2022/04/08 03:14:31;;;;;;;20.10;2.70;;;;;;;;;;5039992;28;20041;-76
2022/04/08 03:17:00;;;;;;;22.67;2.95;;;;;;;;;;5050537;28;20062;-77
2022/04/08 03:19:29;;;;;;;12.70;2.45;;;;;;;;;;5051868;28;20407;-76
2022/04/08 03:21:55;;;;;;;20.88;3.40;;;;;;;;;;5051204;28;20029;-76
2022/04/08 03:24:21;;;;;;;13.60;2.63;;;;;;;;;;5051037;28;20052;-75
2022/04/08 03:26:53;;;;;;;16.77;2.58;;;;;;;;;;5051768;28;20402;-78
2022/04/08 03:29:24;;;;;;;11.75;2.13;;;;;;;;;;5050877;28;20044;-76
2022/04/08 03:31:50;;;;;;;7.45;2.15;;;;;;;;;;5051066;28;20399;-77
2022/04/08 03:34:16;;;;;;;3.35;1.02;;;;;;;;;;5050088;28;20045;-78
2022/04/08 03:36:41;;;;;;;8.90;1.38;;;4.10;99.90;;;;;;5050253;28;20047;-75
2022/04/08 03:39:09;;;;;;;2.13;0.73;;;;;;;;;;5048298;28;20033;-75
2022/04/08 03:41:35;;;;;;;3.05;1.42;;;;;;;;;;5058429;28;20037;-77
2022/04/08 03:44:01;;;;;;;3.97;1.90;;;;;;;;;;5053341;28;20043;-78
2022/04/08 03:46:27;;;;;;;1.00;0.70;;;3.80;99.90;;;;;;5051064;28;20037;-78
2022/04/08 03:48:53;;;;;;;4.57;1.35;;;;;;;;;;5051474;28;20040;-77
2022/04/08 03:51:18;;;;;;;3.70;0.80;;;;;;;;;;5049425;28;20091;-77
2022/04/08 03:53:44;;;;;;;4.30;0.90;;;;;;;;;;5051094;28;20098;-77
2022/04/08 03:56:10;;;;;;;3.60;0.90;;;;;;;;;;5051845;28;20047;-77
2022/04/08 03:58:42;;;;;;;3.85;0.90;;;;;;;;;;5049207;28;20036;-78
2022/04/08 04:01:08;;;;;;;7.75;1.00;;;;;;;;;;5050127;28;20489;-77
2022/04/08 04:03:34;;;;;;;4.07;1.10;;;;;;;;;;5049736;28;20029;-75
2022/04/08 04:06:01;;;;;;;6.57;0.90;;;;;;;;;;5050927;28;20091;-75
2022/04/08 04:08:27;;;;;;;3.30;1.00;;;;;;;;;;5050540;28;20052;-75
2022/04/08 04:10:53;;;;;;;2.40;1.00;;;;;;;;;;5050597;28;20055;-76
2022/04/08 04:13:22;;;;;;;2.53;1.20;;;;;;;;;;5050981;28;20556;-78
2022/04/08 04:15:48;;;;;;;3.83;1.13;;;;;;;;;;5052245;28;20041;-76
2022/04/08 04:18:15;;;;;;;5.90;1.02;;;;;;;;;;5033065;28;20033;-76
2022/04/08 04:20:41;;;;;;;4.65;1.40;;;;;;;;;;5043358;28;20041;-76
2022/04/08 04:23:07;;;;;;;2.58;0.98;;;;;;;;;;5050276;28;20032;-76
2022/04/08 04:25:33;;;;;;;2.85;1.58;;;;;;;;;;5042552;28;20041;-74
2022/04/08 04:28:13;;;;;;;;;;;;;;;;;;;;;
2022/04/08 04:30:39;;;;;;;5.78;1.67;;;;;;;;;;5048638;28;20098;-77
2022/04/08 04:33:07;;;;;;;6.28;1.33;;;;;;;;;;5049021;28;20045;-76
2022/04/08 04:35:34;;;;;;;6.45;1.42;;;;;;;;;;5050823;28;20033;-76
2022/04/08 04:38:00;;;;;;;6.45;1.25;;;;;;;;;;5047741;28;20379;-76
2022/04/08 04:40:26;;;;;;;6.05;1.20;;;;;;;;;;5051052;28;20055;-77
2022/04/08 04:42:52;;;;;;;2.70;1.30;;;;;;;;;;5051669;28;20041;-75
2022/04/08 04:45:19;;;;;;;1.48;1.10;;;;;;;;;;5048130;28;20093;-75
2022/04/08 04:47:45;;;;;;;10.80;1.88;;;;;;;;;;5049814;28;20647;-75
2022/04/08 04:50:22;;;;;;;4.00;1.60;;;;;;;;;;5049851;28;20541;-78
2022/04/08 04:52:51;;;;;;;4.35;1.10;;;;;;;;;;5051634;28;20040;-76
2022/04/08 04:55:17;;;;;;;4.90;1.52;;;;;;;;;;5049950;28;20293;-77
2022/04/08 04:57:43;;;;;;;4.00;1.40;;;;;;;;;;5047897;28;20041;-76
2022/04/08 05:00:09;;;;;;;5.22;2.05;;;;;;;;;;5050443;28;20486;-75
2022/04/08 05:02:39;;;;;;;5.15;1.45;;;;;;;;;;5050224;28;20075;-78
2022/04/08 05:05:06;;;;;;;4.07;1.20;;;;;;;;;;5028751;28;20049;-78
2022/04/08 05:07:32;;;;;;;4.70;1.23;;;;;;;;;;5049304;28;20048;-76
2022/04/08 05:09:58;;;;;;;3.30;1.60;;;;;;;;;;5049075;28;20118;-76
2022/04/08 05:12:30;;;;;;;2.92;1.00;;;;;;;;;;5052479;28;20538;-77
2022/04/08 05:15:02;;;;;;;2.67;1.00;;;;;;;;;;5034162;28;20044;-79
2022/04/08 05:17:28;;;;;;;1.15;0.70;;;;;;;;;;5032323;28;20425;-76
2022/04/08 05:19:54;;;;;;;2.22;1.20;;;;;;;;;;5048474;28;20046;-75
2022/04/08 05:22:21;;;;;;;5.72;1.30;;;;;;;;;;5050502;28;20037;-76
2022/04/08 05:24:47;;;;;;;2.72;1.20;;;;;;;;;;5049447;28;20040;-77
2022/04/08 05:27:13;;;;;;;3.25;1.10;;;;;;;;;;5033208;28;20091;-78
2022/04/08 05:29:41;;;;;;;5.22;1.48;;;;;;;;;;5040404;28;20066;-75
2022/04/08 05:32:13;;;;;;;4.40;1.50;;;;;;;;;;5050570;28;20049;-78
2022/04/08 05:34:39;;;;;;;5.22;1.58;;;;;;;;;;5048899;28;20085;-78
2022/04/08 05:37:05;;;;;;;4.35;1.63;;;;;;;;;;5050019;28;20041;-78
2022/04/08 05:39:31;;;;;;;5.38;1.55;;;;;;;;;;5049094;28;20037;-76
2022/04/08 05:41:57;;;;;;;5.35;1.45;;;;;;;;;;5048286;28;20039;-77
2022/04/08 05:44:23;;;;;;;7.10;1.60;;;;;;;;;;5048593;28;20040;-78
2022/04/08 05:46:49;;;;;;;6.22;1.63;;;;;;;;;;5049535;28;20592;-76
2022/04/08 05:49:15;;;;;;;9.82;1.88;;;;;;;;;;5056982;28;20510;-75
2022/04/08 05:51:45;;;;;;;6.68;1.40;;;;;;;;;;5042842;28;20690;-75
2022/04/08 05:54:11;;;;;;;5.97;1.25;;;;;;;;;;5027482;28;20041;-77
2022/04/08 05:56:37;;;;;;;6.93;1.50;;;;;;;;;;5028010;28;20090;-75
2022/04/08 05:59:03;;;;;;;4.15;1.00;;;;;;;;;;5043064;28;20041;-75
2022/04/08 06:01:29;;;;;;;7.25;1.55;;;;;;;;;;5044904;28;20463;-76
2022/04/08 06:03:55;;;;;;;3.85;1.20;;;;;;;;;;5025307;28;20045;-75
2022/04/08 06:06:21;;;;;;;7.00;2.03;;;;;;;;;;5030483;28;20065;-74
2022/04/08 06:08:47;;;;;;;5.25;1.40;;;;;;;;;;5026171;28;20648;-75
2022/04/08 06:11:13;;;;;;;7.55;1.27;;;;;;;;;;5030820;28;20041;-75
2022/04/08 06:13:40;;;;;;;4.65;1.52;;;;;;;;;;5032167;28;20047;-76
2022/04/08 06:16:06;;;;;;;6.70;2.10;;;;;;;;;;5027508;28;20087;-75
2022/04/08 06:18:33;;;;;;;4.72;1.50;;;;;;;;;;5032896;28;20038;-75
2022/04/08 06:21:01;;;;;;;4.25;1.30;;;;;;;;;;5003048;28;20510;-74
2022/04/08 06:23:27;;;;;;;5.75;1.40;;;;;;;;;;5050442;22;20397;-68
2022/04/08 06:25:53;;;;;;;11.13;2.13;;;;;;;;;;5000432;28;20136;-69
2022/04/08 06:28:19;;;;;;;8.15;2.22;;;;;;;;;;5008938;28;20035;-69
2022/04/08 06:30:45;;;;;;;4.65;1.85;;;;;;;;;;4991841;28;20426;-69
2022/04/08 06:33:11;;;;;;;3.88;1.40;;;;;;;;;;5009848;28;20222;-68
2022/04/08 06:35:37;;;;;;;3.88;1.75;;;;;;;;;;4991202;28;20053;-69
2022/04/08 06:38:04;;;;;;;6.45;2.17;;;;;;;;;;4989999;28;20127;-69
2022/04/08 06:40:35;;;;;;;4.93;1.55;;;;;;;;;;4989181;28;20030;-69
2022/04/08 06:43:01;;;;;;;7.20;1.83;;;;;;;;;;4989439;28;20046;-68
2022/04/08 06:45:27;;;;;;;5.90;1.75;;;;;;;;;;4991430;28;20401;-69
2022/04/08 06:47:54;;;;;;;4.95;1.90;;;;;;;;;;4973763;28;20449;-69
2022/04/08 06:50:20;;;;;;;8.85;1.75;;;;;;;;;;4991633;28;20078;-69
2022/04/08 06:52:47;;;;;;;8.68;1.45;;;;;;;;;;4993489;28;20042;-70
2022/04/08 06:55:13;;;;;;;5.00;2.03;;;;;;;;;;4992825;28;20038;-69
2022/04/08 06:57:39;;;;;;;8.68;1.70;;;;;;;;;;4993413;28;20034;-69
2022/04/08 07:00:10;;;;;;;10.98;1.58;;;;;;;;;;4992923;28;20038;-69
2022/04/08 07:02:36;;;;;;;3.90;1.83;;;;;;;;;;4993588;28;20580;-69
2022/04/08 07:05:02;;;;;;;5.72;1.60;;;;;;;;;;4993500;28;20129;-68
2022/04/08 07:07:29;;;;;;;8.57;1.55;;;;;;;;;;4993446;28;20128;-69
2022/04/08 07:09:57;;;;;;;5.38;1.70;;;;;;;;;;4992597;28;20047;-69
2022/04/08 07:12:23;;;;;;;15.02;2.38;;;;;;;;;;4994701;28;20050;-69
2022/04/08 07:14:49;;;;;;;9.57;2.28;;;;;;;;;;4993536;28;20046;-69
2022/04/08 07:17:15;;;;;;;7.75;2.05;;;;;;;;;;4994642;28;20101;-69
2022/04/08 07:19:41;;;;;;;8.82;1.90;;;;;;;;;;4992562;28;20053;-69
2022/04/08 07:22:07;;;;;;;3.63;1.85;;;;;;;;;;4992952;28;20039;-69
2022/04/08 07:24:33;;;;;;;7.35;1.70;;;;;;;;;;4994527;28;20177;-69
2022/04/08 07:26:59;;;;;;;11.52;2.28;;;;;;;;;;4993098;28;20042;-69
2022/04/08 07:29:25;;;;;;;8.93;1.40;;;;;;;;;;4992245;28;20119;-69
2022/04/08 07:31:51;;;;;;;11.48;3.28;;;;;;;;;;4976701;28;20053;-69
2022/04/08 07:34:16;;;;;;;11.10;2.50;;;;;;;;;;4994356;28;20046;-68
2022/04/08 07:36:42;;;;;;;6.55;1.88;;;;;;;;;;4993910;28;20117;-70
2022/04/08 07:39:08;;;;;;;8.13;1.50;;;;;;;;;;4991158;28;20039;-67
2022/04/08 07:41:34;;;;;;;5.28;1.30;;;;;;;;;;4992822;28;20045;-68
2022/04/08 07:44:00;;;;;;;12.77;1.75;;;;;;;;;;4994103;28;20496;-69
2022/04/08 07:46:26;;;;;;;5.97;1.20;;;;;;;;;;4993981;28;20042;-69
2022/04/08 07:48:52;;;;;;;6.53;1.35;;;;;;;;;;4976058;28;20038;-68
2022/04/08 07:51:18;;;;;;;4.10;1.75;;;;;;;;;;4976122;28;20038;-69
2022/04/08 07:53:44;;;;;;;5.88;1.50;;;;;;;;;;4993876;28;20155;-69
2022/04/08 07:56:12;;;;;;;9.95;2.22;;;;;;;;;;4992609;28;20042;-69
2022/04/08 07:58:38;;;;;;;4.07;0.98;;;;;;;;;;4994021;28;20201;-69
2022/04/08 08:01:04;;;;;;;9.80;1.80;;;;;;;;;;4993660;28;20396;-67
2022/04/08 08:03:34;;;;;;;7.40;1.30;;;;;;;;;;4993677;28;20174;-69
2022/04/08 08:06:00;;;;;;;8.57;1.42;;;;;;;;;;4993653;28;20080;-69
2022/04/08 08:08:26;;;;;;;6.65;1.30;;;;;;;;;;4992787;28;20050;-69
2022/04/08 08:10:54;;;;;;;4.85;1.08;;;;;;;;;;4994959;28;20210;-70
2022/04/08 08:13:20;;;;;;;16.08;1.48;;;7.40;99.90;;;;;;5002613;28;20050;-69
2022/04/08 08:15:46;;;;;;;5.63;2.15;;;;;;;;;;4998808;28;20045;-69
2022/04/08 08:18:14;;;;;;;5.40;1.42;;;;;;;;;;4983026;28;20038;-69
2022/04/08 08:20:40;;;;;;;3.13;1.48;;;;;;;;;;4999373;28;20053;-68
2022/04/08 08:23:06;;;;;;;4.72;1.02;;;;;;;;;;5001350;28;20038;-66
2022/04/08 08:25:33;;;;;;;2.58;1.05;;;;;;;;;;4995957;28;20042;-66
2022/04/08 08:28:02;;;;;;;4.43;1.35;;;;;;;;;;4994436;28;20056;-68
2022/04/08 08:30:30;;;;;;;9.70;2.03;;;8.10;99.90;;;;;;4975263;28;20084;-67
2022/04/08 08:32:56;;;;;;;4.10;1.10;;;8.10;99.90;;;;;;4992174;28;20448;-66
2022/04/08 08:35:22;;;;;;;8.95;1.70;;;7.90;99.90;;;;;;4991863;28;20039;-68
2022/04/08 08:37:51;;;;;;;6.57;1.48;;;;;;;;;;4991884;28;20045;-67
2022/04/08 08:40:18;;;;;;;8.43;1.42;;;8.30;99.90;;;;;;4991190;28;20128;-66
2022/04/08 08:42:45;;;;;;;4.78;1.20;;;8.60;99.90;;;;;;4991945;28;20042;-68
2022/04/08 08:45:12;;;;;;;8.63;1.58;;;8.60;99.90;;;;;;4992866;28;20042;-66
2022/04/08 08:47:38;;;;;;;5.68;1.60;;;;;;;;;;4991623;28;20121;-67
2022/04/08 08:50:07;;;;;;;4.43;1.67;;;8.80;99.90;;;;;;4990457;28;20050;-66
2022/04/08 08:52:33;;;;;;;5.18;1.25;;;8.60;99.90;;;;;;4991786;28;20038;-67
2022/04/08 08:55:02;;;;;;;8.52;1.70;;;8.40;99.90;;;;;;4991553;28;20072;-66
2022/04/08 08:57:28;;;;;;;8.98;1.20;;;8.30;99.90;;;;;;4991568;28;20092;-67
2022/04/08 09:00:06;;;;;;;6.45;1.30;;;8.50;99.90;;;;;;4991926;28;20439;-68
2022/04/08 09:02:31;;;;;;;10.80;1.73;;;8.40;99.90;;;;;;4992218;28;20495;-66
2022/04/08 09:04:57;;;;;;;11.15;2.28;;;8.10;99.90;;;;;;5006811;28;20057;-67
2022/04/08 09:07:28;;;;;;;11.25;1.52;;;8.10;99.90;;;;;;5010582;28;20460;-67
2022/04/08 09:09:56;;;;;;;5.45;1.48;;;8.30;99.90;;;;;;5006888;28;20042;-67
2022/04/08 09:12:27;;;;;;;19.92;2.53;;;8.10;99.90;;;;;;5012536;28;20538;-66
2022/04/08 09:14:55;;;;;;;5.00;1.13;;;8.20;99.90;;;;;;5011949;28;20038;-67
2022/04/08 09:17:23;;;;;;;6.65;1.33;;;8.40;99.90;;;;;;5012332;28;20174;-67
2022/04/08 09:19:59;;;;;;;3.08;0.80;;;8.70;99.90;;;;;;5009711;28;20385;-67
2022/04/08 09:22:29;;;;;;;3.97;1.23;;;8.80;99.90;;;;;;5009782;28;20053;-67
2022/04/08 09:25:04;;;;;;;7.60;1.23;;;9.10;99.90;;;;;;4994698;28;20117;-68
2022/04/08 09:27:34;;;;;;;5.53;1.83;;;9.00;99.90;;;;;;4991157;28;20405;-66
2022/04/08 09:29:59;;;;;;;6.13;1.45;;;8.80;99.90;;;;;;4990202;28;20050;-65
2022/04/08 09:32:28;;;;;;;11.52;2.35;;;8.90;99.90;;;;;;4992011;28;20416;-68
2022/04/08 09:34:53;;;;;;;5.78;1.60;;;9.00;99.90;;;;;;5008060;28;20124;-67
2022/04/08 09:37:19;;;;;;;7.22;1.15;;;9.30;99.90;;;;;;5011641;28;20085;-68
2022/04/08 09:40:00;;;;;;;6.32;1.08;;;9.50;99.90;;;;;;5002557;28;20532;-68
2022/04/08 09:42:47;;;;;;;5.80;1.48;;;9.40;99.90;;;;;;4992247;28;20169;-67
2022/04/08 09:45:13;;;;;;;6.95;1.67;;;9.50;99.90;;;;;;4990912;28;20038;-67
2022/04/08 09:47:39;;;;;;;5.35;1.10;;;9.60;99.90;;;;;;4990889;28;20081;-67
2022/04/08 09:50:07;;;;;;;7.93;1.88;;;9.50;99.90;;;;;;4991337;28;20038;-67
2022/04/08 09:52:33;;;;;;;8.63;1.13;;;9.70;99.90;;;;;;4992768;28;20173;-67
2022/04/08 09:55:03;;;;;;;6.97;1.65;;;10.00;99.90;;;;;;4998458;28;20556;-67
2022/04/08 09:57:35;;;;;;;4.63;1.10;;;10.00;99.90;;;;;;5009288;28;20030;-67
2022/04/08 10:00:02;;;;;;;3.20;1.25;;;9.80;99.90;;;;;;5009601;28;20041;-67
2022/04/08 10:02:29;;;;;;;7.45;1.33;;;;;;;;;;5014871;28;20399;-66
2022/04/08 10:04:58;;;;;;;5.07;1.27;;;9.40;99.90;;;;;;5013687;28;20540;-68
2022/04/08 10:07:25;;;;;;;8.15;2.03;;;9.00;99.90;;;;;;5014499;28;20520;-67
2022/04/08 10:10:02;;;;;;;6.40;1.35;;;8.90;99.90;;;;;;5014518;28;20056;-68
2022/04/08 10:12:40;;;;;;;5.72;1.70;;;8.70;99.90;;;;;;4986508;28;20431;-68
2022/04/08 10:15:06;;;;;;;6.82;1.45;;;;;;;;;;5004914;28;20050;-67
2022/04/08 10:17:32;;;;;;;4.80;1.75;;;;;;;;;;4980625;28;20440;-67
2022/04/08 10:20:20;;;;;;;8.07;1.48;;;9.30;99.90;;;;;;5013917;28;20152;-68
2022/04/08 10:22:47;;;;;;;2.78;1.35;;;9.70;99.90;;;;;;5013484;28;20389;-69
2022/04/08 10:25:17;;;;;;;3.85;1.33;;;9.60;99.90;;;;;;5013799;28;20034;-68
2022/04/08 10:27:44;;;;;;;3.67;1.23;;;;;;;;;;5013756;28;20407;-67
2022/04/08 10:30:11;;;;;;;2.33;0.93;;;;;;;;;;5012780;28;20068;-68
2022/04/08 10:32:40;;;;;;;2.53;0.85;;;;;;;;;;5009617;28;20061;-69
2022/04/08 10:35:33;;;;;;;2.97;1.48;;;7.90;99.90;;;;;;5001035;28;20049;-68
2022/04/08 10:38:00;;;;;;;4.20;1.00;;;;;;;;;;5009610;28;20057;-68
2022/04/08 10:40:30;;;;;;;4.10;0.90;;;7.30;99.90;;;;;;5008511;28;20099;-67
2022/04/08 10:43:02;;;;;;;6.55;1.30;;;7.10;99.90;;;;;;4992929;28;20042;-67
2022/04/08 10:45:29;;;;;;;3.55;0.80;;;;;;;;;;5010692;28;20136;-68
2022/04/08 10:47:58;;;;;;;5.00;1.83;;;;;;;;;;5010708;28;20053;-68
2022/04/08 10:50:28;;;;;;;3.35;1.90;;;;;;;;;;5025947;28;20331;-67
2022/04/08 10:53:05;;;;;;;5.32;1.90;;;7.20;99.90;;;;;;5023706;28;20049;-65
2022/04/08 10:55:32;;;;;;;10.43;1.48;;;;;;;;;;5025291;28;20073;-67
2022/04/08 10:57:58;;;;;;;9.25;1.55;;;;;;;;;;5023526;28;20494;-66
2022/04/08 11:00:25;;;;;;;7.13;1.55;;;;;;;;;;5025740;28;20124;-67
2022/04/08 11:02:53;;;;;;;8.32;2.03;;;;;;;;;;5023482;28;20121;-67
2022/04/08 11:05:20;;;;;;;3.83;1.20;;;;;;;;;;5021102;28;20402;-67
2022/04/08 11:07:48;;;;;;;7.90;1.48;;;;;;;;;;5001993;28;20057;-67
2022/04/08 11:10:15;;;;;;;9.13;1.50;;;;;;;;;;5000777;28;20038;-67
2022/04/08 11:12:46;;;;;;;5.38;1.27;;;8.30;99.90;;;;;;5004270;28;20056;-67
2022/04/08 11:15:16;;;;;;;7.50;1.30;;;8.80;99.90;;;;;;5003325;28;20088;-67
2022/04/08 11:17:43;;;;;;;6.45;1.42;;;9.10;99.90;;;;;;5003704;28;20062;-67
2022/04/08 11:20:19;;;;;;;6.20;1.52;;;9.40;99.90;;;;;;5001962;28;20560;-67
2022/04/08 11:22:52;;;;;;;6.35;1.17;;;9.50;99.90;;;;;;5001447;28;20039;-67
2022/04/08 11:25:23;;;;;;;6.07;1.50;;;9.50;99.90;;;;;;4984377;28;20087;-67
2022/04/08 11:28:12;;;;;;;9.80;1.08;;;9.50;99.90;;;;;;5001307;28;20045;-67
2022/04/08 11:30:39;;;;;;;8.23;2.38;;;;;;;;;;4995384;28;20034;-68
2022/04/08 11:33:31;;;;;;;8.13;2.13;;;9.30;99.90;;;;;;5013775;28;20033;-68
2022/04/08 11:36:03;;;;;;;3.45;1.10;;;9.30;99.90;;;;;;5008780;28;20508;-68
2022/04/08 11:38:30;;;;;;;7.30;1.52;;;;;;;;;;5013609;28;20038;-67
2022/04/08 11:40:56;;;;;;;7.18;1.15;;;9.40;99.90;;;;;;5012885;28;20064;-67
2022/04/08 11:43:22;;;;;;;15.48;3.53;;;9.60;99.90;;;;;;5012011;28;20073;-67
2022/04/08 11:45:52;;;;;;;6.53;1.60;;;9.60;99.90;;;;;;4996210;28;20046;-67
2022/04/08 11:48:20;;;;;;;4.70;1.20;;;9.30;99.90;;;;;;5012026;28;20121;-67
2022/04/08 11:50:47;;;;;;;6.07;1.25;;;9.30;99.90;;;;;;5004462;28;20038;-66
2022/04/08 11:53:22;;;;;;;7.88;1.77;;;9.20;99.90;;;;;;5001468;28;20050;-67
2022/04/08 11:56:01;;;;;;;4.25;1.15;;;9.30;99.90;;;;;;4992993;28;20440;-67
2022/04/08 11:58:28;;;;;;;3.63;0.90;;;9.40;99.90;;;;;;5012396;28;20042;-67
2022/04/08 12:00:54;;;;;;;3.53;1.30;;;;;;;;;;5012291;28;20080;-67
2022/04/08 12:03:23;;;;;;;8.85;1.35;;;9.50;99.90;;;;;;5012822;28;20054;-66
2022/04/08 12:05:50;;;;;;;7.57;1.40;;;9.80;99.90;;;;;;5013077;28;20523;-67
2022/04/08 12:08:17;;;;;;;3.90;1.13;;;9.90;99.90;;;;;;5013248;28;20034;-67
2022/04/08 12:10:43;;;;;;;8.23;1.17;;;10.10;99.90;;;;;;5011711;28;20053;-67
2022/04/08 12:13:17;;;;;;;5.65;1.25;;;10.10;99.90;;;;;;4995570;28;20081;-67
2022/04/08 12:15:43;;;;;;;;;;;10.10;99.90;;;;;;5012246;28;20049;-67
2022/04/08 12:18:09;;;;;;;6.03;1.05;;;10.10;99.90;;;;;;4995120;28;20446;-67
2022/04/08 12:20:39;;;;;;;5.95;1.27;;;9.90;99.90;;;;;;4994372;28;20038;-67
2022/04/08 12:23:05;;;;;;;10.00;1.10;;;9.50;99.90;;;;;;5051944;22;20044;-69
2022/04/08 12:25:32;;;;;;;3.67;1.00;;;9.70;99.90;;;;;;5008205;28;20056;-69
2022/04/08 12:27:59;;;;;;;6.13;1.15;;;;;;;;;;5022763;28;20064;-69
2022/04/08 12:30:34;;;;;;;7.45;1.30;;;9.40;99.90;;;;;;5014150;28;20056;-68
2022/04/08 12:33:00;;;;;;;6.43;1.33;;;;;;;;;;5034888;28;20400;-69
2022/04/08 12:35:26;;;;;;;5.85;1.40;;;9.90;99.90;;;;;;5017387;28;20247;-68
2022/04/08 12:37:52;;;;;;;10.65;1.63;;;;;;;;;;5017998;28;20035;-69
2022/04/08 12:40:18;;;;;;;5.78;1.30;;;9.80;99.90;;;;;;5033993;28;20516;-69
2022/04/08 12:42:44;;;;;;;6.13;1.63;;;;;;;;;;5034319;28;20056;-69
2022/04/08 12:45:10;;;;;;;5.40;1.05;;;9.70;99.90;;;;;;5051920;28;20498;-69
2022/04/08 12:47:36;;;;;;;8.30;1.70;;;9.70;99.90;;;;;;5052829;28;20080;-69
2022/04/08 12:50:02;;;;;;;5.88;1.33;;;9.70;99.90;;;;;;5033858;28;20098;-68
2022/04/08 12:52:28;;;;;;;6.28;1.55;;;10.00;99.90;;;;;;5034309;28;20062;-69
2022/04/08 12:54:54;;;;;;;11.30;1.80;;;;;;;;;;5017715;28;20392;-70
2022/04/08 12:57:20;;;;;;;2.13;0.95;;;;;;;;;;5034378;28;20048;-71
2022/04/08 12:59:49;;;;;;;8.00;1.08;;;;;;;;;;5050955;28;20041;-71
2022/04/08 13:02:15;;;;;;;3.15;1.15;;;10.10;99.90;;;;;;5017528;28;20068;-71
2022/04/08 13:04:41;;;;;;;7.55;1.10;;;10.40;99.90;;;;;;5025047;28;20072;-69
2022/04/08 13:07:07;;;;;;;6.20;1.15;;;;;;;;;;5007044;28;20037;-68
2022/04/08 13:09:36;;;;;;;9.65;1.10;;;10.30;99.90;;;;;;5040880;28;20461;-69
2022/04/08 13:12:03;;;;;;;8.50;1.25;;;10.40;99.90;;;;;;5016743;28;20041;-67
2022/04/08 13:14:29;;;;;;;7.40;1.60;;;10.20;99.90;;;;;;4997909;28;20052;-69
2022/04/08 13:16:55;;;;;;;5.05;1.58;;;;;;;;;;5031959;28;20042;-69
2022/04/08 13:19:20;;;;;;;3.78;1.15;;;10.30;99.90;;;;;;5013441;28;20148;-70
2022/04/08 13:21:46;;;;;;;7.63;0.95;;;10.30;99.90;;;;;;5014025;28;20116;-68
2022/04/08 13:24:12;;;;;;;6.00;1.30;;;;;;;;;;5014238;28;20086;-69
2022/04/08 13:26:38;;;;;;;9.90;1.15;;;;;;;;;;5014042;28;20079;-68
2022/04/08 13:29:04;;;;;;;6.25;1.00;;;9.90;99.90;;;;;;5013485;28;20051;-69
2022/04/08 13:31:33;;;;;;;4.57;1.00;;;9.80;99.90;;;;;;5013670;28;20054;-70
2022/04/08 13:34:04;;;;;;;2.88;1.35;;;9.90;99.90;;;;;;5031722;28;20103;-69
2022/04/08 13:36:30;;;;;;;7.85;1.15;;;;;;;;;;5030502;28;20049;-69
2022/04/08 13:38:56;;;;;;;5.78;1.00;;;;;;;;;;5013210;28;20479;-68
2022/04/08 13:41:22;;;;;;;10.13;1.42;;;10.10;99.90;;;;;;5018194;28;20037;-70
2022/04/08 13:43:48;;;;;;;7.10;1.38;;;10.20;99.90;;;;;;5014155;28;20488;-71
2022/04/08 13:46:13;;;;;;;5.32;1.73;;;9.90;99.90;;;;;;5015433;28;20048;-71
2022/04/08 13:48:39;;;;;;;7.25;1.60;;;;;;;;;;5033736;28;20045;-71
2022/04/08 13:51:05;;;;;;;8.25;1.55;;;;;;;;;;5050365;28;20048;-69
2022/04/08 13:53:31;;;;;;;8.40;2.25;;;;;;;;;;5051273;28;20040;-69
2022/04/08 13:55:57;;;;;;;6.65;1.15;;;;;;;;;;5051026;28;20128;-69
2022/04/08 13:58:23;;;;;;;8.77;2.15;;;10.40;99.90;;;;;;5033375;28;20498;-72
2022/04/08 14:00:49;;;;;;;9.75;2.05;;;;;;;;;;5032741;28;20095;-69
2022/04/08 14:03:17;;;;;;;6.10;1.45;;;10.40;99.90;;;;;;5011086;28;20141;-71
2022/04/08 14:05:42;;;;;;;5.47;1.30;;;10.50;99.90;;;;;;5051301;28;20040;-69
2022/04/08 14:08:08;;;;;;;6.95;1.30;;;;;;;;;;5051074;28;20122;-70